Airport View

Enter AWOS ICAO identifier for current METAR.

ex. KFNL

KPVB 171215Z AUTO 15009KT 10SM SCT120 01/00 A2998 RMK AO1 T00070000

17 Nov 2019 12:24

Frequency: 120.575

Phone: 608-348-3637

Other Area AWOS: KMRJ - KDBQ - KOVS - KLNR

TAF KDBQ 171120Z 1712/1812 17011KT 6SM BR BKN100 FM171600 20008KT 4SM -SNRA BR OVC035 FM172100 29006KT P6SM SCT009 OVC020 FM180600 31007KT P6SM SCT025